createdAt,value
2022-11-30T00:02:00.524Z,50.70
2022-11-30T00:04:27.349Z,49.92
2022-11-30T00:06:57.309Z,50.53
2022-11-30T00:09:24.701Z,52.70
2022-11-30T00:11:51.575Z,50.92
2022-11-30T00:14:18.940Z,50.33
2022-11-30T00:16:45.685Z,51.42
2022-11-30T00:19:12.362Z,51.25
2022-11-30T00:21:39.616Z,56.97
2022-11-30T00:24:06.657Z,53.90
2022-11-30T00:26:33.414Z,53.25
2022-11-30T00:29:00.035Z,50.15
2022-11-30T00:31:26.735Z,51.78
2022-11-30T00:33:53.480Z,55.05
2022-11-30T00:36:22.103Z,51.15
2022-11-30T00:38:49.622Z,49.45
2022-11-30T00:41:16.578Z,48.15
2022-11-30T00:43:43.262Z,48.45
2022-11-30T00:46:10.127Z,47.10
2022-11-30T00:48:37.720Z,43.17
2022-11-30T00:51:04.608Z,45.97
2022-11-30T00:53:32.532Z,48.83
2022-11-30T00:55:59.276Z,44.13
2022-11-30T00:58:26.320Z,50.85
2022-11-30T01:00:53.808Z,52.72
2022-11-30T01:03:20.468Z,41.15
2022-11-30T01:05:47.246Z,45.80
2022-11-30T01:08:14.045Z,47.97
2022-11-30T01:10:42.461Z,47.47
2022-11-30T01:13:09.135Z,43.58
2022-11-30T01:15:40.291Z,46.35
2022-11-30T01:18:07.599Z,45.33
2022-11-30T01:20:34.818Z,51.92
2022-11-30T01:23:02.060Z,52.90
2022-11-30T01:25:28.963Z,51.78
2022-11-30T01:27:55.614Z,45.25
2022-11-30T01:30:22.342Z,47.60
2022-11-30T01:32:48.998Z,52.70
2022-11-30T01:35:15.760Z,44.38
2022-11-30T01:37:42.485Z,44.72
2022-11-30T01:40:10.393Z,43.92
2022-11-30T01:42:38.080Z,42.97
2022-11-30T01:45:05.243Z,47.25
2022-11-30T01:47:34.891Z,48.15
2022-11-30T01:50:06.264Z,42.22
2022-11-30T01:52:35.514Z,43.85
2022-11-30T01:55:22.270Z,38.15
2022-11-30T01:57:51.552Z,40.47
2022-11-30T02:00:19.003Z,35.15
2022-11-30T02:02:50.154Z,37.55
2022-11-30T02:05:18.093Z,35.35
2022-11-30T02:07:44.996Z,36.60
2022-11-30T02:10:16.026Z,39.78
2022-11-30T02:13:04.354Z,38.38
2022-11-30T02:15:32.629Z,34.00
2022-11-30T02:18:10.882Z,38.03
2022-11-30T02:20:47.446Z,38.42
2022-11-30T02:23:42.988Z,34.45
2022-11-30T02:26:24.637Z,34.83
2022-11-30T02:29:00.551Z,36.45
2022-11-30T02:31:30.072Z,34.95
2022-11-30T02:33:59.011Z,38.47
2022-11-30T02:36:26.537Z,32.42
2022-11-30T02:38:53.371Z,34.30
2022-11-30T02:41:20.058Z,39.03
2022-11-30T02:43:46.957Z,44.58
2022-11-30T02:46:19.549Z,40.75
2022-11-30T02:48:50.037Z,39.40
2022-11-30T02:51:18.565Z,33.72
2022-11-30T02:53:46.119Z,36.15
2022-11-30T02:56:12.813Z,35.25
2022-11-30T02:58:40.579Z,54.20
2022-11-30T03:01:07.607Z,163.35
2022-11-30T03:03:34.377Z,35.67
2022-11-30T03:06:01.122Z,34.28
2022-11-30T03:08:27.821Z,37.10
2022-11-30T03:10:54.490Z,32.33
2022-11-30T03:13:21.273Z,36.42
2022-11-30T03:15:48.067Z,42.10
2022-11-30T03:18:15.137Z,40.63
2022-11-30T03:20:42.694Z,29.63
2022-11-30T03:23:11.037Z,21.92
2022-11-30T03:25:38.024Z,18.63
2022-11-30T03:28:04.741Z,17.98
2022-11-30T03:30:31.576Z,20.75
2022-11-30T03:32:58.419Z,19.20
2022-11-30T03:35:25.059Z,20.52
2022-11-30T03:37:51.720Z,24.92
2022-11-30T03:40:18.800Z,21.65
2022-11-30T03:42:45.522Z,18.48
2022-11-30T03:45:12.297Z,20.52
2022-11-30T03:47:40.224Z,21.25
2022-11-30T03:50:07.358Z,20.52
2022-11-30T03:52:34.072Z,19.02
2022-11-30T03:55:00.747Z,20.63
2022-11-30T03:57:27.497Z,23.38
2022-11-30T03:59:54.356Z,23.35
2022-11-30T04:02:21.107Z,24.13
2022-11-30T04:04:48.205Z,28.60
2022-11-30T04:07:15.279Z,29.17
2022-11-30T04:09:43.013Z,76.22
2022-11-30T04:12:09.741Z,26.00
2022-11-30T04:14:36.645Z,28.85
2022-11-30T04:17:03.631Z,29.75
2022-11-30T04:19:30.841Z,27.83
2022-11-30T04:21:58.591Z,25.98
2022-11-30T04:24:25.627Z,25.00
2022-11-30T04:26:52.477Z,29.92
2022-11-30T04:29:19.237Z,26.77
2022-11-30T04:31:45.994Z,22.75
2022-11-30T04:34:12.774Z,21.08
2022-11-30T04:36:39.697Z,25.90
2022-11-30T04:39:06.489Z,30.92
2022-11-30T04:41:33.212Z,26.73
2022-11-30T04:43:59.980Z,25.20
2022-11-30T04:46:26.832Z,25.40
2022-11-30T04:48:53.658Z,23.92
2022-11-30T04:51:20.409Z,27.00
2022-11-30T04:53:47.044Z,31.40
2022-11-30T04:56:13.749Z,34.72
2022-11-30T04:58:40.930Z,34.50
2022-11-30T05:01:08.175Z,40.80
2022-11-30T05:03:34.900Z,37.95
2022-11-30T05:06:01.862Z,43.83
2022-11-30T05:08:28.730Z,36.50
2022-11-30T05:10:55.592Z,34.88
2022-11-30T05:13:25.308Z,34.78
2022-11-30T05:15:53.944Z,34.58
2022-11-30T05:18:20.822Z,35.53
2022-11-30T05:20:51.516Z,34.22
2022-11-30T05:23:18.664Z,124.55
2022-11-30T05:25:45.480Z,34.20
2022-11-30T05:28:12.739Z,31.52
2022-11-30T05:30:40.091Z,54.67
2022-11-30T05:33:08.747Z,115.43
2022-11-30T05:35:35.489Z,164.10
2022-11-30T05:38:02.346Z,166.40
2022-11-30T05:40:30.195Z,239.35
2022-11-30T05:42:57.617Z,196.00
2022-11-30T05:45:24.396Z,152.95
2022-11-30T05:47:51.160Z,166.68
2022-11-30T05:50:17.813Z,172.50
2022-11-30T05:52:44.645Z,70.18
2022-11-30T05:55:11.882Z,57.03
2022-11-30T05:57:39.745Z,66.97
2022-11-30T06:00:08.085Z,122.18
2022-11-30T06:02:40.006Z,65.07
2022-11-30T06:05:07.161Z,56.47
2022-11-30T06:07:34.002Z,55.15
2022-11-30T06:10:00.710Z,49.75
2022-11-30T06:12:27.397Z,58.30
2022-11-30T06:14:54.146Z,52.63
2022-11-30T06:17:20.847Z,53.10
2022-11-30T06:19:47.980Z,52.97
2022-11-30T06:22:14.648Z,49.58
2022-11-30T06:24:41.436Z,57.38
2022-11-30T06:27:08.222Z,59.13
2022-11-30T06:29:34.900Z,60.97
2022-11-30T06:32:01.720Z,63.80
2022-11-30T06:34:30.105Z,68.22
2022-11-30T06:36:57.332Z,60.92
2022-11-30T06:39:50.176Z,68.90
2022-11-30T06:42:13.892Z,71.93
2022-11-30T06:44:40.774Z,67.32
2022-11-30T06:47:13.111Z,68.55
2022-11-30T06:49:43.434Z,64.72
2022-11-30T06:52:13.000Z,63.13
2022-11-30T06:54:41.895Z,56.15
2022-11-30T06:57:23.113Z,57.38
2022-11-30T06:59:58.494Z,52.22
2022-11-30T07:02:33.676Z,49.40
2022-11-30T07:05:05.349Z,43.17
2022-11-30T07:07:37.891Z,45.95
2022-11-30T07:10:14.777Z,45.22
2022-11-30T07:12:53.893Z,45.72
2022-11-30T07:15:24.528Z,43.95
2022-11-30T07:17:57.780Z,49.15
2022-11-30T07:20:27.346Z,40.83
2022-11-30T07:23:01.667Z,38.10
2022-11-30T07:28:34.637Z,44.03
2022-11-30T07:31:01.617Z,41.65
2022-11-30T07:33:28.381Z,49.45
2022-11-30T07:35:55.301Z,48.05
2022-11-30T07:38:22.029Z,44.03
2022-11-30T07:40:48.800Z,44.40
2022-11-30T07:43:15.885Z,49.47
2022-11-30T07:45:43.092Z,45.55
2022-11-30T07:48:09.939Z,45.53
2022-11-30T07:50:36.612Z,46.75
2022-11-30T07:53:03.355Z,46.67
2022-11-30T07:55:31.166Z,52.00
2022-11-30T07:57:57.984Z,48.10
2022-11-30T08:00:25.074Z,44.95
2022-11-30T08:02:52.007Z,52.80
2022-11-30T08:05:18.720Z,44.28
2022-11-30T08:07:45.832Z,49.25
2022-11-30T08:10:12.648Z,58.45
2022-11-30T08:12:39.396Z,52.38
2022-11-30T08:15:27.466Z,47.55
2022-11-30T08:17:55.404Z,51.63
2022-11-30T08:20:22.698Z,46.95
2022-11-30T08:22:49.743Z,48.42
2022-11-30T08:25:16.570Z,55.55
2022-11-30T08:27:43.274Z,49.40
2022-11-30T08:30:10.098Z,57.50
2022-11-30T08:32:37.441Z,50.25
2022-11-30T08:35:04.445Z,55.15
2022-11-30T08:37:31.194Z,53.42
2022-11-30T08:39:57.912Z,65.03
2022-11-30T08:42:32.152Z,70.63
2022-11-30T08:45:06.174Z,61.72
2022-11-30T08:47:44.572Z,66.10
2022-11-30T08:50:11.447Z,70.93
2022-11-30T08:52:45.588Z,62.30
2022-11-30T08:55:19.532Z,70.30
2022-11-30T08:57:52.620Z,71.28
2022-11-30T09:00:31.143Z,70.60
2022-11-30T09:03:07.968Z,76.55
2022-11-30T09:05:38.185Z,68.80
2022-11-30T09:08:14.170Z,69.70
2022-11-30T09:10:42.788Z,71.00
2022-11-30T09:13:15.383Z,67.38
2022-11-30T09:15:43.214Z,67.25
2022-11-30T09:18:16.382Z,67.10
2022-11-30T09:20:48.832Z,69.30
2022-11-30T09:23:19.279Z,74.18
2022-11-30T09:25:51.396Z,69.60
2022-11-30T09:28:18.676Z,66.50
2022-11-30T09:30:48.381Z,69.38
2022-11-30T09:33:15.209Z,71.13
2022-11-30T09:35:44.632Z,70.10
2022-11-30T09:38:16.322Z,62.67
2022-11-30T09:40:47.583Z,71.47
2022-11-30T09:43:15.472Z,64.00
2022-11-30T09:45:46.507Z,68.07
2022-11-30T09:48:27.796Z,65.97
2022-11-30T09:50:54.681Z,65.00
2022-11-30T09:53:29.454Z,66.70
2022-11-30T09:55:59.319Z,61.20
2022-11-30T09:58:39.769Z,65.10
2022-11-30T10:01:14.144Z,64.50
2022-11-30T10:03:42.200Z,73.30
2022-11-30T10:06:12.595Z,70.60
2022-11-30T10:08:50.694Z,63.17
2022-11-30T10:12:02.219Z,70.85
2022-11-30T10:14:37.446Z,72.40
2022-11-30T10:17:11.446Z,78.00
2022-11-30T10:19:47.732Z,73.75
2022-11-30T10:22:24.245Z,89.82
2022-11-30T10:25:03.873Z,90.75
2022-11-30T10:27:42.846Z,76.72
2022-11-30T10:30:13.461Z,82.50
2022-11-30T10:32:41.509Z,76.53
2022-11-30T10:35:32.304Z,74.57
2022-11-30T10:38:12.072Z,83.05
2022-11-30T10:40:53.717Z,76.55
2022-11-30T10:43:24.965Z,78.57
2022-11-30T10:45:51.776Z,73.72
2022-11-30T10:48:40.451Z,74.00
2022-11-30T10:51:08.221Z,75.82
2022-11-30T10:53:38.272Z,76.53
2022-11-30T10:56:12.315Z,76.75
2022-11-30T10:58:49.122Z,68.78
2022-11-30T11:01:33.551Z,75.07
2022-11-30T11:04:19.513Z,77.80
2022-11-30T11:06:58.383Z,71.03
2022-11-30T11:09:37.223Z,94.78
2022-11-30T11:12:27.113Z,70.90
2022-11-30T11:15:10.477Z,64.82
2022-11-30T11:17:37.887Z,68.85
2022-11-30T11:20:31.286Z,78.32
2022-11-30T11:23:00.615Z,76.82
2022-11-30T11:25:38.676Z,75.75
2022-11-30T11:28:09.135Z,74.00
2022-11-30T11:30:40.289Z,75.68
2022-11-30T11:33:15.592Z,81.72
2022-11-30T11:36:09.835Z,77.45
2022-11-30T11:38:36.498Z,71.18
2022-11-30T11:41:07.028Z,71.13
2022-11-30T11:43:34.832Z,71.15
2022-11-30T11:46:12.478Z,74.70
2022-11-30T11:48:40.496Z,75.90
2022-11-30T11:51:10.887Z,68.60
2022-11-30T11:53:47.474Z,65.57
2022-11-30T11:56:20.985Z,77.18
2022-11-30T11:58:48.508Z,68.00
2022-11-30T12:04:20.596Z,71.25
2022-11-30T12:06:49.787Z,72.20
2022-11-30T12:09:18.370Z,71.63
2022-11-30T12:11:46.466Z,68.47
2022-11-30T12:14:14.644Z,71.25
2022-11-30T12:16:44.399Z,75.93
2022-11-30T12:19:11.253Z,64.25
2022-11-30T12:21:57.162Z,68.97
2022-11-30T12:24:35.322Z,69.80
2022-11-30T12:27:14.249Z,68.25
2022-11-30T12:30:00.295Z,68.43
2022-11-30T12:32:33.037Z,62.70
2022-11-30T12:35:08.990Z,62.03
2022-11-30T12:37:50.585Z,68.28
2022-11-30T12:40:25.163Z,69.85
2022-11-30T12:42:59.289Z,56.38
2022-11-30T12:45:31.905Z,66.38
2022-11-30T12:48:01.719Z,61.33
2022-11-30T12:50:31.912Z,60.70
2022-11-30T12:53:17.564Z,61.47
2022-11-30T12:55:56.379Z,74.22
2022-11-30T12:58:41.665Z,64.07
2022-11-30T13:01:12.208Z,55.53
2022-11-30T13:03:45.398Z,57.40
2022-11-30T13:06:14.851Z,54.95
2022-11-30T13:08:50.627Z,64.18
2022-11-30T13:11:23.191Z,63.22
2022-11-30T13:13:52.277Z,57.38
2022-11-30T13:16:20.505Z,53.45
2022-11-30T13:18:47.883Z,51.47
2022-11-30T13:21:23.865Z,56.53
2022-11-30T13:24:04.855Z,64.15
2022-11-30T13:26:39.155Z,51.08
2022-11-30T13:29:05.943Z,76.50
2022-11-30T13:31:39.258Z,55.60
2022-11-30T13:34:21.903Z,54.97
2022-11-30T13:36:48.771Z,57.47
2022-11-30T13:39:15.503Z,60.58
2022-11-30T13:41:43.654Z,61.35
2022-11-30T13:44:31.185Z,51.88
2022-11-30T13:46:58.384Z,57.05
2022-11-30T13:49:29.084Z,61.78
2022-11-30T13:52:21.616Z,62.20
2022-11-30T13:54:45.259Z,56.50
2022-11-30T13:57:16.900Z,56.92
2022-11-30T13:59:51.629Z,56.97
2022-11-30T14:02:41.981Z,57.60
2022-11-30T14:05:17.662Z,47.15
2022-11-30T14:07:45.724Z,47.40
2022-11-30T14:10:28.068Z,62.20
2022-11-30T14:13:02.228Z,50.97
2022-11-30T14:15:34.189Z,52.17
2022-11-30T14:18:03.227Z,43.33
2022-11-30T14:20:37.791Z,48.33
2022-11-30T14:23:10.909Z,52.85
2022-11-30T14:25:43.193Z,49.30
2022-11-30T14:28:16.128Z,48.72
2022-11-30T14:30:47.262Z,61.23
2022-11-30T14:33:24.050Z,37.63
2022-11-30T14:35:55.346Z,38.58
2022-11-30T14:38:44.737Z,50.10
2022-11-30T14:41:24.983Z,41.38
2022-11-30T14:44:14.243Z,53.60
2022-11-30T14:46:41.308Z,46.88
2022-11-30T14:49:15.722Z,44.40
2022-11-30T14:51:44.894Z,44.55
2022-11-30T14:54:11.618Z,45.50
2022-11-30T14:56:43.462Z,47.28
2022-11-30T14:59:46.304Z,49.80
2022-11-30T15:02:19.102Z,43.30
2022-11-30T15:04:46.623Z,46.47
2022-11-30T15:07:14.823Z,48.17
2022-11-30T15:09:43.448Z,60.85
2022-11-30T15:12:10.361Z,50.78
2022-11-30T15:14:37.080Z,55.83
2022-11-30T15:17:03.794Z,48.08
2022-11-30T15:19:32.597Z,52.80
2022-11-30T15:21:59.595Z,48.28
2022-11-30T15:24:27.068Z,52.35
2022-11-30T15:26:56.420Z,58.42
2022-11-30T15:29:31.790Z,58.45
2022-11-30T15:32:00.121Z,50.65
2022-11-30T15:34:26.861Z,63.15
2022-11-30T15:36:55.604Z,54.10
2022-11-30T15:39:23.510Z,63.00
2022-11-30T15:41:54.721Z,65.60
2022-11-30T15:44:41.530Z,66.03
2022-11-30T15:47:23.502Z,56.65
2022-11-30T15:49:54.262Z,54.03
2022-11-30T15:52:25.721Z,61.63
2022-11-30T15:54:55.285Z,58.58
2022-11-30T15:57:23.212Z,62.88
2022-11-30T16:00:22.430Z,66.05
2022-11-30T16:02:49.560Z,56.45
2022-11-30T16:05:17.775Z,53.05
2022-11-30T16:08:00.069Z,65.47
2022-11-30T16:10:37.934Z,59.90
2022-11-30T16:13:05.359Z,50.78
2022-11-30T16:15:35.007Z,66.65
2022-11-30T16:18:11.391Z,63.30
2022-11-30T16:20:38.380Z,73.15
2022-11-30T16:23:06.320Z,65.65
2022-11-30T16:25:33.294Z,68.13
2022-11-30T16:28:02.860Z,63.63
2022-11-30T16:30:32.406Z,62.72
2022-11-30T16:33:06.745Z,66.88
2022-11-30T16:35:43.467Z,67.45
2022-11-30T16:38:16.204Z,62.92
2022-11-30T16:40:51.801Z,62.08
2022-11-30T16:43:26.041Z,65.43
2022-11-30T16:45:59.466Z,56.97
2022-11-30T16:48:26.358Z,61.13
2022-11-30T16:51:01.110Z,61.50
2022-11-30T16:53:33.451Z,79.35
2022-11-30T16:56:05.049Z,63.83
2022-11-30T16:58:37.752Z,74.90
2022-11-30T17:01:07.886Z,74.10
2022-11-30T17:03:41.916Z,110.82
2022-11-30T17:06:22.442Z,122.80
2022-11-30T17:08:51.905Z,72.72
2022-11-30T17:11:29.479Z,69.57
2022-11-30T17:13:56.170Z,69.25
2022-11-30T17:16:24.939Z,97.45
2022-11-30T17:18:54.781Z,79.20
2022-11-30T17:21:32.615Z,80.15
2022-11-30T17:24:12.187Z,62.08
2022-11-30T17:26:45.752Z,61.88
2022-11-30T17:29:20.516Z,60.30
2022-11-30T17:31:56.659Z,61.15
2022-11-30T17:34:24.245Z,68.75
2022-11-30T17:36:56.192Z,66.43
2022-11-30T17:39:29.244Z,58.38
2022-11-30T17:41:59.058Z,76.38
2022-11-30T17:44:35.008Z,58.80
2022-11-30T17:47:07.777Z,61.05
2022-11-30T17:49:37.290Z,85.43
2022-11-30T17:52:05.117Z,91.05
2022-11-30T17:54:34.862Z,100.13
2022-11-30T17:57:02.586Z,87.43
2022-11-30T17:59:35.211Z,87.93
2022-11-30T18:02:07.323Z,83.32
2022-11-30T18:04:39.695Z,66.53
2022-11-30T18:07:09.650Z,74.28
2022-11-30T18:09:40.944Z,68.70
2022-11-30T18:12:12.590Z,65.17
2022-11-30T18:14:45.934Z,61.67
2022-11-30T18:17:30.930Z,63.28
2022-11-30T18:19:59.751Z,74.10
2022-11-30T18:22:29.223Z,88.95
2022-11-30T18:24:59.075Z,119.72
2022-11-30T18:27:32.453Z,113.18
2022-11-30T18:30:10.133Z,103.35
2022-11-30T18:32:43.273Z,73.85
2022-11-30T18:35:16.371Z,77.45
2022-11-30T18:37:50.784Z,81.07
2022-11-30T18:40:20.308Z,71.60
2022-11-30T18:42:48.973Z,70.95
2022-11-30T18:45:18.637Z,70.28
2022-11-30T18:47:49.332Z,66.18
2022-11-30T18:50:17.591Z,71.90
2022-11-30T18:52:47.069Z,101.55
2022-11-30T18:55:22.634Z,81.13
2022-11-30T18:57:53.547Z,80.72
2022-11-30T19:00:21.885Z,72.85
2022-11-30T19:02:52.258Z,81.88
2022-11-30T19:05:39.755Z,75.15
2022-11-30T19:08:14.133Z,74.47
2022-11-30T19:10:40.988Z,70.72
2022-11-30T19:13:12.071Z,76.38
2022-11-30T19:15:41.598Z,79.50
2022-11-30T19:18:15.853Z,63.40
2022-11-30T19:20:50.871Z,71.45
2022-11-30T19:23:20.734Z,72.03
2022-11-30T19:25:47.386Z,71.32
2022-11-30T19:28:17.572Z,84.43
2022-11-30T19:30:48.722Z,76.60
2022-11-30T19:33:19.283Z,78.20
2022-11-30T19:35:48.060Z,92.45
2022-11-30T19:38:17.678Z,93.32
2022-11-30T19:40:47.809Z,98.45
2022-11-30T19:43:23.772Z,72.45
2022-11-30T19:45:50.716Z,68.15
2022-11-30T19:48:19.009Z,69.10
2022-11-30T19:50:52.789Z,69.82
2022-11-30T19:53:28.401Z,71.63
2022-11-30T19:55:55.355Z,77.07
2022-11-30T19:58:25.428Z,80.55
2022-11-30T20:00:58.342Z,83.10
2022-11-30T20:03:27.617Z,81.55
2022-11-30T20:05:59.705Z,83.60
2022-11-30T20:08:26.563Z,85.28
2022-11-30T20:10:53.439Z,84.05
2022-11-30T20:13:22.567Z,95.80
2022-11-30T20:15:52.600Z,89.82
2022-11-30T20:18:24.567Z,97.40
2022-11-30T20:20:52.298Z,93.82
2022-11-30T20:23:20.357Z,88.07
2022-11-30T20:25:49.640Z,83.47
2022-11-30T20:28:16.616Z,91.88
2022-11-30T20:30:43.694Z,96.88
2022-11-30T20:33:16.495Z,89.53
2022-11-30T20:35:43.266Z,96.00
2022-11-30T20:38:12.836Z,98.20
2022-11-30T20:40:46.221Z,101.30
2022-11-30T20:43:15.015Z,90.88
2022-11-30T20:45:44.621Z,97.07
2022-11-30T20:48:13.815Z,101.50
2022-11-30T20:50:55.955Z,86.47
2022-11-30T20:53:34.423Z,92.72
2022-11-30T20:56:01.584Z,101.78
2022-11-30T20:58:28.645Z,90.90
2022-11-30T21:00:55.759Z,100.75
2022-11-30T21:03:22.621Z,98.20
2022-11-30T21:05:55.274Z,98.18
2022-11-30T21:08:29.042Z,108.70
2022-11-30T21:11:18.269Z,109.13
2022-11-30T21:13:50.605Z,110.85
2022-11-30T21:16:28.150Z,116.43
2022-11-30T21:18:59.380Z,106.18
2022-11-30T21:21:31.397Z,115.90
2022-11-30T21:24:02.484Z,125.10
2022-11-30T21:26:36.795Z,116.10
2022-11-30T21:29:08.012Z,106.38
2022-11-30T21:31:35.211Z,103.10
2022-11-30T21:34:10.486Z,110.03
2022-11-30T21:36:37.156Z,108.22
2022-11-30T21:39:06.690Z,112.53
2022-11-30T21:41:43.005Z,110.13
2022-11-30T21:44:14.163Z,103.90
2022-11-30T21:46:41.133Z,111.63
2022-11-30T21:49:09.667Z,95.78
2022-11-30T21:51:36.304Z,98.43
2022-11-30T21:54:05.739Z,91.80
2022-11-30T21:56:34.738Z,102.95
2022-11-30T21:59:04.288Z,92.75
2022-11-30T22:01:33.400Z,97.25
2022-11-30T22:04:00.908Z,93.95
2022-11-30T22:06:29.273Z,92.18
2022-11-30T22:08:56.586Z,96.30
2022-11-30T22:11:23.454Z,99.35
2022-11-30T22:13:51.235Z,101.03
2022-11-30T22:16:18.434Z,94.07
2022-11-30T22:18:46.102Z,102.88
2022-11-30T22:21:17.095Z,101.50
2022-11-30T22:23:45.197Z,101.07
2022-11-30T22:26:15.102Z,105.50
2022-11-30T22:28:46.666Z,95.15
2022-11-30T22:31:14.446Z,89.88
2022-11-30T22:33:41.725Z,91.22
2022-11-30T22:36:10.189Z,89.28
2022-11-30T22:38:36.925Z,93.95
2022-11-30T22:41:08.118Z,99.68
2022-11-30T22:43:35.295Z,105.13
2022-11-30T22:46:12.493Z,92.28
2022-11-30T22:48:39.576Z,89.75
2022-11-30T22:51:10.916Z,93.72
2022-11-30T22:53:38.183Z,94.40
2022-11-30T22:56:06.772Z,98.32
2022-11-30T22:58:34.322Z,91.30
2022-11-30T23:01:11.597Z,94.50
2022-11-30T23:03:38.825Z,97.32
2022-11-30T23:06:06.615Z,92.53
2022-11-30T23:08:33.725Z,91.57
2022-11-30T23:11:01.383Z,93.40
2022-11-30T23:13:28.342Z,91.45
2022-11-30T23:15:57.679Z,89.68
2022-11-30T23:18:24.879Z,95.82
2022-11-30T23:20:52.849Z,91.10
2022-11-30T23:23:20.728Z,89.53
2022-11-30T23:25:47.782Z,79.70
2022-11-30T23:28:14.778Z,85.28
2022-11-30T23:30:42.287Z,81.90
2022-11-30T23:33:10.325Z,84.05
2022-11-30T23:35:38.159Z,75.22
2022-11-30T23:38:04.854Z,85.00
2022-11-30T23:40:31.716Z,82.78
2022-11-30T23:42:58.348Z,85.45
2022-11-30T23:45:25.109Z,77.70
2022-11-30T23:47:52.154Z,89.70
2022-11-30T23:50:19.181Z,85.25
2022-11-30T23:52:45.849Z,85.85
2022-11-30T23:55:12.920Z,85.20
2022-11-30T23:57:39.726Z,80.15
